Time;durP1;ratioP1;P1;durP2;ratioP2;P2;SDS_P1;SDS_P2;PMS_P1;PMS_P2;Temp;Humidity;BMP_temperature;BMP_pressure;BME280_temperature;BME280_humidity;BME280_pressure;Samples;Min_cycle;Max_cycle;Signal;HPM_P1;HPM_P2
2022/12/12 00:00:51;;;;;;;8.98;3.47;;;;;;;-2.56;100.00;97511.47;4473194;32;20088;-74
2022/12/12 00:03:18;;;;;;;11.68;4.97;;;;;;;-2.58;100.00;97516.69;4473686;32;20105;-74
2022/12/12 00:05:46;;;;;;;8.55;5.25;;;;;;;-2.68;100.00;97512.97;4467998;32;164931;-74
2022/12/12 00:08:13;;;;;;;11.20;5.80;;;;;;;-2.72;100.00;97517.47;4475375;32;20172;-74
2022/12/12 00:10:40;;;;;;;15.52;5.60;;;;;;;-2.60;100.00;97521.09;4488735;32;20454;-74
2022/12/12 00:13:07;;;;;;;8.10;4.12;;;;;;;-2.70;100.00;97530.19;4488865;32;20149;-74
2022/12/12 00:15:34;;;;;;;10.68;4.10;;;;;;;-2.63;100.00;97530.69;4488829;32;20160;-74
2022/12/12 00:18:02;;;;;;;8.15;3.95;;;;;;;-2.71;100.00;97533.66;4489012;32;20103;-74
2022/12/12 00:20:29;;;;;;;10.82;5.32;;;;;;;-2.65;100.00;97542.75;4485932;31;20119;-74
2022/12/12 00:22:56;;;;;;;6.45;3.55;;;;;;;-2.70;100.00;97531.00;4473099;32;20077;-74
2022/12/12 00:25:23;;;;;;;9.23;5.00;;;;;;;-2.68;100.00;97529.19;4473111;32;20105;-73
2022/12/12 00:27:50;;;;;;;8.35;3.12;;;;;;;-2.65;100.00;97537.63;4473055;32;20160;-74
2022/12/12 00:30:17;;;;;;;7.82;3.95;;;;;;;-2.57;100.00;97538.84;4472967;32;20429;-74
2022/12/12 00:32:44;;;;;;;9.60;3.17;;;;;;;-2.66;100.00;97536.81;4472205;32;20466;-74
2022/12/12 00:35:11;;;;;;;8.95;4.07;;;;;;;-2.64;100.00;97544.41;4469706;32;20161;-74
2022/12/12 00:37:39;;;;;;;9.45;3.17;;;;;;;-2.72;100.00;97544.84;4470326;32;20101;-74
2022/12/12 00:40:07;;;;;;;5.43;2.58;;;;;;;-2.67;100.00;97541.09;4469810;32;20130;-73
2022/12/12 00:42:34;;;;;;;6.62;3.37;;;;;;;-2.74;100.00;97546.63;4469964;32;20084;-74
2022/12/12 00:45:01;;;;;;;7.40;3.42;;;;;;;-2.72;100.00;97553.34;4470036;32;20104;-73
2022/12/12 00:47:28;;;;;;;7.68;3.75;;;;;;;-2.73;100.00;97551.69;4470282;32;20112;-74
2022/12/12 00:49:55;;;;;;;7.87;3.80;;;;;;;-2.79;100.00;97541.78;4470083;32;20179;-73
2022/12/12 00:52:22;;;;;;;7.57;3.65;;;;;;;-2.78;100.00;97543.44;4469974;32;20093;-74
2022/12/12 00:54:52;;;;;;;10.73;4.45;;;;;;;-2.77;100.00;97523.75;4469943;32;20160;-74
2022/12/12 00:57:19;;;;;;;9.95;4.55;;;;;;;-2.76;100.00;97543.34;4470099;32;20093;-74
2022/12/12 00:59:46;;;;;;;7.62;3.53;;;;;;;-2.85;100.00;97521.59;4469667;32;20160;-73
2022/12/12 01:02:14;;;;;;;8.13;3.67;;;;;;;-2.78;100.00;97535.75;4469911;32;20173;-74
2022/12/12 01:04:41;;;;;;;7.32;4.57;;;;;;;-2.81;100.00;97543.59;4469953;32;20446;-73
2022/12/12 01:07:08;;;;;;;5.90;3.10;;;;;;;-2.79;100.00;97553.75;4469912;32;20109;-74
2022/12/12 01:09:35;;;;;;;11.02;5.18;;;;;;;-2.82;100.00;97541.13;4480322;32;20096;-73
2022/12/12 01:12:02;;;;;;;9.45;4.57;;;;;;;-2.81;100.00;97537.66;4485437;31;20096;-74
2022/12/12 01:14:29;;;;;;;8.40;3.67;;;;;;;-2.79;100.00;97538.38;4485603;31;20089;-73
2022/12/12 01:16:57;;;;;;;12.18;5.22;;;;;;;-2.83;100.00;97542.88;4485495;31;20151;-73
2022/12/12 01:19:23;;;;;;;10.93;5.37;;;;;;;-2.84;100.00;97554.03;4484023;32;20168;-74
2022/12/12 01:21:51;;;;;;;8.18;4.12;;;;;;;-2.83;100.00;97553.13;4473302;32;20097;-74
2022/12/12 01:24:18;;;;;;;10.63;4.32;;;;;;;-2.83;100.00;97555.69;4469651;32;20157;-73
2022/12/12 01:26:46;;;;;;;12.27;4.53;;;;;;;-2.79;100.00;97556.34;4469758;32;20240;-73
2022/12/12 01:29:13;;;;;;;15.13;5.97;;;;;;;-2.83;100.00;97540.31;4469740;32;20092;-73
2022/12/12 01:31:40;;;;;;;8.60;4.60;;;;;;;-2.83;100.00;97537.75;4469729;32;20484;-73
2022/12/12 01:34:07;;;;;;;7.43;4.60;;;;;;;-2.89;100.00;97545.78;4469693;32;20085;-73
2022/12/12 01:36:35;;;;;;;11.10;4.45;;;;;;;-2.89;100.00;97520.97;4469470;32;20156;-73
2022/12/12 01:39:03;;;;;;;8.52;4.85;;;;;;;-2.85;100.00;97526.72;4469356;32;20126;-73
2022/12/12 01:41:30;;;;;;;7.40;3.90;;;;;;;-2.77;100.00;97523.75;4469588;32;20093;-73
2022/12/12 01:44:01;;;;;;;14.40;4.50;;;;;;;-2.90;100.00;97529.53;4469540;32;20089;-73
2022/12/12 01:46:38;;;;;;;10.20;4.82;;;;;;;-2.88;100.00;97525.19;4469490;32;20115;-73
2022/12/12 01:49:17;;;;;;;10.23;3.85;;;;;;;-2.99;100.00;97531.78;4469520;32;20080;-73
2022/12/12 01:51:45;;;;;;;10.35;4.32;;;;;;;-3.01;100.00;97528.47;4469506;32;20072;-73
2022/12/12 01:54:18;;;;;;;9.30;4.15;;;;;;;-2.93;100.00;97516.09;4468122;32;20105;-73
2022/12/12 01:56:46;;;;;;;10.23;4.60;;;;;;;-2.98;100.00;97510.38;4468317;32;20209;-73
2022/12/12 01:59:15;;;;;;;7.22;3.72;;;;;;;-3.14;100.00;97506.09;4468106;32;20104;-73
2022/12/12 02:01:42;;;;;;;9.30;4.22;;;;;;;-3.07;100.00;97497.16;4469449;32;20090;-73
2022/12/12 02:04:10;;;;;;;10.63;5.80;;;;;;;-3.12;100.00;97511.97;4469600;32;20112;-73
2022/12/12 02:06:38;;;;;;;10.68;5.10;;;;;;;-3.07;100.00;97506.59;4468003;32;20511;-73
2022/12/12 02:09:08;;;;;;;8.82;3.40;;;;;;;-3.13;100.00;97507.75;4476688;32;20115;-73
2022/12/12 02:11:42;;;;;;;8.60;5.18;;;;;;;-3.12;100.00;97516.25;4484970;31;20097;-73
2022/12/12 02:14:10;;;;;;;16.52;7.15;;;;;;;-3.11;100.00;97515.34;4485189;31;20412;-73
2022/12/12 02:16:48;;;;;;;11.85;5.35;;;;;;;-3.14;100.00;97526.56;4485126;31;20206;-73
2022/12/12 02:19:21;;;;;;;7.32;4.10;;;;;;;-3.13;100.00;97532.53;4483962;32;20609;-73
2022/12/12 02:22:04;;;;;;;14.57;4.87;;;;;;;-3.05;100.00;97544.00;4473291;31;20498;-73
2022/12/12 02:25:05;;;;;;;10.93;5.10;;;;;;;-3.09;100.00;97541.69;4469331;32;20172;-73
2022/12/12 02:28:14;;;;;;;16.15;7.62;;;;;;;-3.15;100.00;97547.16;4469344;32;20168;-73
2022/12/12 02:31:12;;;;;;;8.23;4.50;;;;;;;-3.08;100.00;97548.47;4464895;32;20557;-73
2022/12/12 02:33:58;;;;;;;24.05;5.22;;;;;;;-3.11;100.00;97566.59;4469305;32;20076;-73
2022/12/12 02:36:47;;;;;;;12.95;4.80;;;;;;;-3.05;100.00;97559.38;4467781;32;20407;-73
2022/12/12 02:39:21;;;;;;;10.80;6.25;;;;;;;-3.07;100.00;97547.59;4469179;32;20081;-73
2022/12/12 02:41:54;;;;;;;10.88;4.75;;;;;;;-3.09;100.00;97557.91;4469460;32;20097;-73
2022/12/12 02:44:28;;;;;;;15.15;5.22;;;;;;;-3.07;100.00;97571.47;4469277;32;20111;-73
2022/12/12 02:47:11;;;;;;;11.57;5.72;;;;;;;-3.05;100.00;97561.94;4469182;32;20509;-73
2022/12/12 02:49:52;;;;;;;8.52;4.90;;;;;;;-3.11;100.00;97567.41;4469151;32;20104;-73
2022/12/12 02:52:19;;;;;;;10.82;5.93;;;;;;;-3.06;100.00;97568.00;4467857;32;20106;-73
2022/12/12 02:54:47;;;;;;;11.82;4.80;;;;;;;-3.10;100.00;97568.25;4469239;32;20343;-73
2022/12/12 02:57:17;;;;;;;11.43;4.12;;;;;;;-3.08;100.00;97564.66;4468026;32;20100;-73
2022/12/12 02:59:51;;;;;;;9.98;4.68;;;;;;;-3.09;100.00;97570.72;4468969;32;20102;-73
2022/12/12 03:02:43;;;;;;;9.98;5.25;;;;;;;-3.10;100.00;97570.81;4469056;32;20131;-73
2022/12/12 03:08:42;;;;;;;9.50;4.32;;;;;;;-3.10;100.00;97575.94;4450360;32;20223;-73
2022/12/12 03:11:16;;;;;;;12.73;5.32;;;;;;;-3.11;100.00;97582.75;4450928;32;20293;-73
2022/12/12 03:13:43;;;;;;;;;;;;;;;-3.20;100.00;97580.69;4438401;32;20108;-73
2022/12/12 03:16:22;;;;;;;8.98;3.58;;;;;;;-3.21;100.00;97594.41;4451285;32;19996;-73
2022/12/12 03:18:55;;;;;;;9.35;4.80;;;;;;;-3.21;100.00;97591.84;4450785;32;20174;-73
2022/12/12 03:22:13;;;;;;;10.73;4.70;;;;;;;-3.22;100.00;97595.31;4438056;32;20120;-73
2022/12/12 03:25:12;;;;;;;10.07;4.50;;;;;;;-3.24;100.00;97592.84;4389383;32;20205;-73
2022/12/12 03:28:08;;;;;;;9.82;3.78;;;;;;;-3.26;100.00;97596.38;4389373;32;20094;-73
2022/12/12 03:30:40;;;;;;;7.18;3.25;;;;;;;-3.23;100.00;97609.03;4377010;32;20107;-73
2022/12/12 03:33:33;;;;;;;6.90;3.33;;;;;;;-3.25;100.00;97609.09;4376829;32;20163;-73
2022/12/12 03:36:04;;;;;;;13.60;5.72;;;;;;;-3.22;100.00;97611.50;4385351;32;20576;-73
2022/12/12 03:38:34;;;;;;;9.75;2.55;;;;;;;-3.22;100.00;97613.25;4389454;32;20108;-73
2022/12/12 03:41:04;;;;;;;9.55;4.05;;;;;;;-3.18;100.00;97619.03;4389037;32;20492;-73
2022/12/12 03:43:36;;;;;;;11.43;4.03;;;;;;;-3.11;100.00;97634.00;4377054;32;20148;-73
2022/12/12 03:46:26;;;;;;;14.43;4.50;;;;;;;-3.10;100.00;97637.41;4403353;32;20121;-73
2022/12/12 03:49:06;;;;;;;11.85;4.28;;;;;;;-3.11;100.00;97634.00;4404396;32;20137;-73
2022/12/12 03:51:38;;;;;;;9.40;3.87;;;;;;;-3.09;100.00;97637.34;4391794;32;20110;-73
2022/12/12 03:54:19;;;;;;;10.38;3.87;;;;;;;-3.01;100.00;97639.50;4404449;32;20650;-73
2022/12/12 03:56:59;;;;;;;11.18;4.22;;;;;;;-3.05;100.00;97646.47;4404417;32;20180;-73
2022/12/12 03:59:33;;;;;;;15.95;5.15;;;;;;;-2.99;100.00;97649.66;4419649;32;20450;-73
2022/12/12 04:02:10;;;;;;;13.25;4.72;;;;;;;-3.12;100.00;97652.00;4468300;32;20140;-73
2022/12/12 04:04:55;;;;;;;11.88;5.20;;;;;;;-3.09;100.00;97657.81;4468341;32;20195;-73
2022/12/12 04:07:26;;;;;;;8.65;3.85;;;;;;;-3.09;100.00;97647.56;4468862;32;20084;-73
2022/12/12 04:12:59;;;;;;;9.82;4.65;;;;;;;-3.04;100.00;97660.97;4486087;31;20092;-73
2022/12/12 04:15:50;;;;;;;15.30;6.47;;;;;;;-3.11;100.00;97656.25;4485132;32;20118;-73
2022/12/12 04:18:52;;;;;;;12.82;4.65;;;;;;;-3.12;100.00;97669.94;4485998;31;20083;-73
2022/12/12 04:24:35;;;;;;;7.37;4.37;;;;;;;-3.19;100.00;97674.56;4470215;32;20112;-73
2022/12/12 04:27:14;;;;;;;10.65;4.95;;;;;;;-3.22;100.00;97683.22;4469243;32;20096;-73
2022/12/12 04:29:45;;;;;;;14.55;5.47;;;;;;;-3.24;100.00;97679.06;4470394;32;20471;-73
2022/12/12 04:32:26;;;;;;;10.90;3.75;;;;;;;-3.18;100.00;97689.00;4469018;32;20407;-73
2022/12/12 04:34:56;;;;;;;11.45;5.35;;;;;;;-3.29;100.00;97681.06;4468829;32;20105;-73
2022/12/12 04:37:45;;;;;;;12.73;5.43;;;;;;;-3.29;100.00;97687.00;4469061;32;20164;-73
2022/12/12 04:40:17;;;;;;;13.20;5.03;;;;;;;-3.42;100.00;97684.25;4468904;32;20080;-73
2022/12/12 04:42:48;;;;;;;13.68;5.50;;;;;;;-3.47;100.00;97683.63;4468899;32;20093;-73
2022/12/12 04:45:19;;;;;;;15.00;4.32;;;;;;;-3.52;100.00;97685.59;4470159;32;20387;-73
2022/12/12 04:47:49;;;;;;;13.90;5.25;;;;;;;-3.51;100.00;97689.81;4468731;32;20184;-73
2022/12/12 04:50:18;;;;;;;11.75;5.05;;;;;;;-3.48;100.00;97687.09;4468858;32;20155;-73
2022/12/12 04:52:47;;;;;;;10.10;4.53;;;;;;;-3.48;100.00;97697.34;4468662;32;20568;-73
2022/12/12 04:55:21;;;;;;;13.68;4.75;;;;;;;-3.55;100.00;97701.09;4470017;32;20160;-73
2022/12/12 04:57:53;;;;;;;14.38;4.93;;;;;;;-3.56;100.00;97707.13;4468795;32;20524;-73
2022/12/12 05:00:22;;;;;;;12.55;4.78;;;;;;;-3.61;100.00;97711.66;4469880;32;20107;-73
2022/12/12 05:03:00;;;;;;;10.52;4.18;;;;;;;-3.60;100.00;97710.75;4468925;32;20446;-73
2022/12/12 05:05:28;;;;;;;14.68;5.62;;;;;;;-3.67;100.00;97714.50;4468645;32;20153;-73
2022/12/12 05:08:07;;;;;;;11.73;4.87;;;;;;;-3.77;100.00;97719.22;4470310;32;20618;-73
2022/12/12 05:10:41;;;;;;;15.43;5.18;;;;;;;-3.85;100.00;97723.91;4483943;32;20123;-75
2022/12/12 05:13:20;;;;;;;14.07;5.15;;;;;;;-3.84;100.00;97716.16;4485595;31;20072;-73
2022/12/12 05:15:50;;;;;;;15.45;4.82;;;;;;;-3.80;100.00;97716.81;4485602;31;20099;-73
2022/12/12 05:18:17;;;;;;;15.05;6.65;;;;;;;-3.89;100.00;97720.66;4484456;32;20092;-73
2022/12/12 05:20:44;;;;;;;21.65;7.12;;;;;;;-3.99;100.00;97722.00;4478896;32;20195;-73
2022/12/12 05:23:12;;;;;;;17.77;6.18;;;;;;;-3.98;100.00;97723.63;4469689;32;20218;-73
2022/12/12 05:25:39;;;;;;;15.07;6.85;;;;;;;-4.01;100.00;97723.78;4469715;32;20101;-73
2022/12/12 05:28:06;;;;;;;16.55;6.15;;;;;;;-4.03;100.00;97721.28;4469874;32;20092;-73
2022/12/12 05:30:33;;;;;;;14.27;6.10;;;;;;;-4.01;100.00;97726.34;4469732;32;20552;-73
2022/12/12 05:33:00;;;;;;;10.40;5.12;;;;;;;-4.06;100.00;97724.00;4469711;32;20171;-73
2022/12/12 05:35:27;;;;;;;12.07;6.30;;;;;;;-4.02;100.00;97724.69;4469568;32;20209;-73
2022/12/12 05:37:55;;;;;;;14.77;6.55;;;;;;;-4.07;100.00;97724.91;4469791;32;20118;-73
2022/12/12 05:40:22;;;;;;;14.05;5.87;;;;;;;-4.10;100.00;97725.88;4469494;32;20643;-73
2022/12/12 05:42:50;;;;;;;16.87;5.15;;;;;;;-4.06;100.00;97725.75;4469510;32;20088;-73
2022/12/12 05:45:18;;;;;;;18.95;6.15;;;;;;;-4.07;100.00;97729.19;4469404;32;20123;-73
2022/12/12 05:47:45;;;;;;;12.95;5.18;;;;;;;-4.12;100.00;97732.81;4469452;32;20190;-73
2022/12/12 05:50:12;;;;;;;16.75;5.70;;;;;;;-4.15;100.00;97730.41;4469675;32;20176;-73
2022/12/12 05:52:41;;;;;;;11.90;4.95;;;;;;;-4.14;100.00;97738.88;4469557;32;20088;-73
2022/12/12 05:55:08;;;;;;;13.60;5.15;;;;;;;-4.22;100.00;97735.84;4469506;32;20217;-73
2022/12/12 05:57:36;;;;;;;15.20;5.75;;;;;;;-4.12;100.00;97734.53;4469612;32;20097;-73
2022/12/12 06:00:04;;;;;;;17.77;6.03;;;;;;;-4.19;100.00;97751.06;4469426;32;20115;-73
2022/12/12 06:02:31;;;;;;;12.10;5.00;;;;;;;-4.25;100.00;97747.06;4469594;32;20096;-73
2022/12/12 06:04:58;;;;;;;12.07;5.05;;;;;;;-4.21;100.00;97742.63;4471984;32;20187;-72
2022/12/12 06:07:25;;;;;;;12.07;5.97;;;;;;;-4.31;100.00;97743.03;4484841;31;20160;-73
2022/12/12 06:09:54;;;;;;;13.43;5.82;;;;;;;-4.26;100.00;97742.84;4472943;32;20101;-73
2022/12/12 06:12:22;;;;;;;14.43;7.05;;;;;;;-4.14;100.00;97739.72;4482693;31;20195;-73
2022/12/12 06:14:49;;;;;;;11.80;5.55;;;;;;;-4.29;100.00;97738.69;4484225;31;20100;-73
2022/12/12 06:17:16;;;;;;;16.00;6.20;;;;;;;-4.28;100.00;97731.84;4484846;31;20453;-73
2022/12/12 06:19:43;;;;;;;14.65;5.40;;;;;;;-4.31;100.00;97747.34;4484643;31;20444;-73
2022/12/12 06:22:10;;;;;;;14.60;6.00;;;;;;;-4.28;100.00;97749.75;4470247;31;20134;-73
2022/12/12 06:24:37;;;;;;;14.13;5.50;;;;;;;-4.25;100.00;97754.72;4482135;32;20707;-74
2022/12/12 06:27:04;;;;;;;16.33;6.57;;;;;;;-4.18;100.00;97758.66;4481932;31;20163;-74
2022/12/12 06:29:31;;;;;;;15.68;6.62;;;;;;;-4.16;100.00;97756.88;4479374;31;20137;-74
2022/12/12 06:31:58;;;;;;;15.23;6.30;;;;;;;-4.14;100.00;97759.34;4474913;31;20147;-76
2022/12/12 06:34:26;;;;;;;14.85;6.00;;;;;;;-4.07;100.00;97765.00;4477478;32;20156;-74
2022/12/12 06:36:53;;;;;;;10.45;6.05;;;;;;;-4.05;100.00;97763.22;4482508;31;20083;-75
2022/12/12 06:39:20;;;;;;;15.38;6.85;;;;;;;-4.04;100.00;97758.03;4483179;31;20092;-75
2022/12/12 06:41:47;;;;;;;11.93;5.97;;;;;;;-4.07;100.00;97767.56;4484091;31;20118;-75
2022/12/12 06:44:14;;;;;;;15.73;6.12;;;;;;;-4.04;100.00;97769.97;4484495;31;20092;-74
2022/12/12 06:46:41;;;;;;;10.35;4.62;;;;;;;-3.98;100.00;97770.53;4484771;31;20465;-74
2022/12/12 06:49:09;;;;;;;15.88;8.05;;;;;;;-4.01;100.00;97774.94;4484322;31;20114;-74
2022/12/12 06:51:42;;;;;;;13.40;6.20;;;;;;;-3.95;100.00;97777.25;4484252;31;20155;-74
2022/12/12 06:54:11;;;;;;;16.98;7.03;;;;;;;-3.93;100.00;97771.12;4483816;31;20116;-74
2022/12/12 06:56:39;;;;;;;10.50;5.03;;;;;;;-3.86;100.00;97776.81;4480671;31;20199;-74
2022/12/12 06:59:15;;;;;;;15.55;5.72;;;;;;;-3.89;100.00;97787.19;4468771;32;20108;-74
2022/12/12 07:01:42;;;;;;;15.38;6.18;;;;;;;-3.72;100.00;97780.44;4473701;32;20128;-74
2022/12/12 07:04:13;;;;;;;13.07;6.15;;;;;;;-3.60;100.00;97779.88;4467735;32;20598;-74
2022/12/12 07:06:41;;;;;;;13.10;5.72;;;;;;;-3.51;100.00;97781.97;4467824;32;20183;-72
2022/12/12 07:09:08;;;;;;;19.00;7.18;;;;;;;-3.49;100.00;97779.34;4480594;31;20549;-72
2022/12/12 07:11:35;;;;;;;14.32;5.65;;;;;;;-3.42;100.00;97783.28;4481385;31;20097;-76
2022/12/12 07:14:04;;;;;;;17.52;6.50;;;;;;;-3.47;100.00;97796.28;4481460;31;20180;-75
2022/12/12 07:16:31;;;;;;;14.40;6.60;;;;;;;-3.36;100.00;97792.38;4478743;32;20163;-74
2022/12/12 07:18:58;;;;;;;16.15;7.15;;;;;;;-3.30;100.00;97794.62;4481066;32;20087;-75
2022/12/12 07:21:26;;;;;;;15.73;5.90;;;;;;;-3.19;100.00;97787.28;4478465;31;20124;-76
2022/12/12 07:23:55;;;;;;;16.40;6.20;;;;;;;-3.21;100.00;97802.72;4478297;31;20123;-75
2022/12/12 07:26:23;;;;;;;17.87;6.28;;;;;;;-3.23;100.00;97801.94;4483356;31;20522;-77
2022/12/12 07:28:50;;;;;;;15.10;7.03;;;;;;;-3.20;100.00;97811.22;4483226;31;20100;-80
2022/12/12 07:31:20;;;;;;;13.23;5.43;;;;;;;-3.10;100.00;97811.59;4482508;31;20128;-82
2022/12/12 07:33:47;;;;;;;16.20;6.85;;;;;;;-2.93;100.00;97823.56;4482416;31;20100;-77
2022/12/12 07:36:15;;;;;;;13.90;6.30;;;;;;;-2.89;100.00;97817.41;4482612;31;20146;-76
2022/12/12 07:38:42;;;;;;;15.93;6.18;;;;;;;-2.87;100.00;97820.72;4484414;31;20131;-77
2022/12/12 07:41:13;;;;;;;19.08;6.55;;;;;;;-2.87;100.00;97825.84;4477982;31;20081;-82
2022/12/12 07:43:42;;;;;;;17.20;5.68;;;;;;;-2.92;100.00;97820.09;4484208;31;20153;-80
2022/12/12 07:46:17;;;;;;;17.10;6.05;;;;;;;-2.87;100.00;97820.72;4480277;32;20117;-79
2022/12/12 07:48:45;;;;;;;19.83;6.22;;;;;;;-2.85;100.00;97818.88;4477922;32;20461;-76
2022/12/12 07:51:12;;;;;;;22.25;6.22;;;;;;;-2.82;100.00;97818.72;4483756;32;20149;-76
2022/12/12 07:53:39;;;;;;;15.48;6.78;;;;;;;-2.71;100.00;97825.88;4477118;31;20113;-76
2022/12/12 07:56:08;;;;;;;14.07;5.55;;;;;;;-2.74;100.00;97820.91;4482041;31;20122;-77
2022/12/12 07:58:36;;;;;;;14.05;6.68;;;;;;;-2.63;100.00;97833.22;4482119;31;20119;-76
2022/12/12 08:01:15;;;;;;;20.92;7.50;;;;;;;-2.59;100.00;97843.22;4478633;32;20179;-76
2022/12/12 08:03:43;;;;;;;14.18;6.95;;;;;;;-2.58;100.00;97839.72;4476436;32;20214;-75
2022/12/12 08:06:11;;;;;;;16.10;7.00;;;;;;;-2.46;100.00;97843.41;4478617;32;20092;-76
2022/12/12 08:08:38;;;;;;;16.23;6.78;;;;;;;-2.48;100.00;97845.25;4481432;31;20092;-77
2022/12/12 08:11:10;;;;;;;11.07;5.18;;;;;;;-2.48;100.00;97842.69;4481104;31;20165;-75
2022/12/12 08:13:38;;;;;;;14.68;6.43;;;;;;;-2.37;100.00;97849.81;4473553;32;20603;-76
2022/12/12 08:16:11;;;;;;;19.80;7.32;;;;;;;-2.39;100.00;97841.34;4481574;31;20377;-78
2022/12/12 08:18:38;;;;;;;12.85;5.30;;;;;;;-2.38;100.00;97854.09;4476954;32;20594;-77
2022/12/12 08:21:10;;;;;;;14.65;6.00;;;;;;;-2.35;100.00;97859.09;4480367;32;20143;-76
2022/12/12 08:23:38;;;;;;;12.48;5.55;;;;;;;-2.30;100.00;97858.00;4483375;31;20156;-76
2022/12/12 08:26:10;;;;;;;11.50;4.85;;;;;;;-2.23;100.00;97861.91;4482098;31;20183;-75
2022/12/12 08:28:40;;;;;;;11.35;4.57;;;;;;;-2.29;100.00;97859.69;4480084;31;20543;-75
2022/12/12 08:31:07;;;;;;;11.18;4.40;;;;;;;-2.19;100.00;97863.44;4482225;31;20088;-76
2022/12/12 08:33:34;;;;;;;12.30;5.43;;;;;;;-2.10;100.00;97862.13;4481979;31;20116;-78
2022/12/12 08:36:19;;;;;;;12.75;5.47;;;;;;;-2.12;100.00;97867.31;4481947;31;20144;-76
2022/12/12 08:38:47;;;;;;;9.93;4.62;;;;;;;-2.05;100.00;97870.41;4478973;32;20164;-77
2022/12/12 08:41:14;;;;;;;14.25;5.78;;;;;;;-1.99;100.00;97855.50;4482069;31;20111;-77
2022/12/12 08:43:42;;;;;;;13.85;6.18;;;;;;;-2.01;100.00;97867.59;4480037;32;20149;-75
2022/12/12 08:46:11;;;;;;;9.88;4.60;;;;;;;-1.90;100.00;97872.16;4481012;32;20133;-75
2022/12/12 08:48:45;;;;;;;8.98;3.80;;;;;;;-1.89;100.00;97863.56;4479582;32;20525;-76
2022/12/12 08:51:13;;;;;;;13.13;4.25;;;;;;;-1.84;100.00;97873.56;4481469;31;20106;-74
2022/12/12 08:53:43;;;;;;;9.90;5.12;;;;;;;-1.82;100.00;97875.16;4479528;31;20169;-75
2022/12/12 08:56:11;;;;;;;14.95;5.32;;;;;;;-1.86;100.00;97878.78;4480217;31;20142;-78
2022/12/12 08:58:38;;;;;;;8.25;4.53;;;;;;;-1.86;100.00;97873.66;4483037;31;20125;-81
2022/12/12 09:01:13;;;;;;;7.87;3.83;;;;;;;-1.79;100.00;97885.25;4482608;31;20502;-78
2022/12/12 09:03:40;;;;;;;10.38;5.68;;;;;;;-1.96;100.00;97868.16;4482821;31;20498;-81
2022/12/12 09:06:09;;;;;;;11.00;4.10;;;;;;;-1.89;100.00;97875.53;4482101;31;20104;-83
2022/12/12 09:08:36;;;;;;;8.23;3.92;;;;;;;-1.76;100.00;97875.72;4481334;31;20112;-81
2022/12/12 09:11:04;;;;;;;15.45;6.55;;;;;;;-1.79;100.00;97881.84;4480201;31;20116;-78
2022/12/12 09:13:31;;;;;;;12.23;5.30;;;;;;;-1.96;100.00;97873.28;4482532;31;20471;-80
2022/12/12 09:15:58;;;;;;;12.27;5.75;;;;;;;-1.92;100.00;97875.69;4472320;31;20597;-81
2022/12/12 09:18:26;;;;;;;12.02;5.55;;;;;;;-1.74;100.00;97879.88;4481577;32;20140;-78
2022/12/12 09:20:55;;;;;;;13.45;5.37;;;;;;;-1.72;100.00;97872.91;4479858;32;20107;-76
2022/12/12 09:23:23;;;;;;;9.32;4.47;;;;;;;-1.69;100.00;97882.19;4482348;31;20124;-78
2022/12/12 09:25:52;;;;;;;8.95;3.40;;;;;;;-1.79;100.00;97880.13;4479426;31;20202;-80
2022/12/12 09:28:20;;;;;;;10.93;3.92;;;;;;;-1.91;100.00;97882.50;4483318;31;20121;-80
2022/12/12 09:30:48;;;;;;;13.95;4.65;;;;;;;-1.76;100.00;97876.53;4481902;31;20107;-79
2022/12/12 09:33:16;;;;;;;13.93;5.82;;;;;;;-1.69;100.00;97877.06;4482699;31;20204;-76
2022/12/12 09:35:43;;;;;;;13.50;4.57;;;;;;;-1.71;100.00;97877.16;4478342;32;20118;-80
2022/12/12 09:38:11;;;;;;;8.43;4.35;;;;;;;-1.63;100.00;97895.53;4481400;31;20123;-77
2022/12/12 09:40:50;;;;;;;10.40;5.32;;;;;;;-1.66;100.00;97893.12;4478788;32;20127;-76
2022/12/12 09:43:20;;;;;;;8.20;3.85;;;;;;;-1.47;100.00;97902.41;4474313;32;20808;-76
2022/12/12 09:45:55;;;;;;;12.82;5.50;;;;;;;-1.40;100.00;97893.44;4476877;32;20644;-76
2022/12/12 09:48:43;;;;;;;7.85;3.67;;;;;;;-1.37;100.00;97884.75;4475450;32;20133;-76
2022/12/12 09:51:11;;;;;;;8.63;4.57;;;;;;;-1.41;100.00;97881.50;4474335;32;20606;-76
2022/12/12 09:53:41;;;;;;;12.50;6.45;;;;;;;-1.14;100.00;97893.75;4473898;32;20100;-76
2022/12/12 09:56:09;;;;;;;9.52;3.87;;;;;;;-1.01;100.00;97876.72;4476967;32;20160;-74
2022/12/12 09:58:47;;;;;;;9.75;5.32;;;;;;;-1.08;100.00;97907.06;4470923;32;20174;-76
2022/12/12 10:01:24;;;;;;;13.05;5.22;;;;;;;-1.02;100.00;97885.34;4470420;32;20449;-76
2022/12/12 10:04:21;;;;;;;9.60;4.00;;;;;;;-0.91;100.00;97895.03;4476038;32;20131;-76
2022/12/12 10:06:54;;;;;;;11.23;5.12;;;;;;;-0.90;100.00;97897.50;4473659;32;20150;-76
2022/12/12 10:09:36;;;;;;;8.57;4.90;;;;;;;-0.82;100.00;97898.81;4470530;32;20104;-74
2022/12/12 10:12:05;;;;;;;9.05;5.20;;;;;;;-0.76;100.00;97901.03;4479596;32;20096;-76
2022/12/12 10:14:44;;;;;;;13.23;4.87;;;;;;;-0.76;98.86;97890.75;4475593;32;20175;-76
2022/12/12 10:17:15;;;;;;;8.32;3.85;;;;;;;-0.90;98.71;97892.38;4481720;31;20110;-75
2022/12/12 10:20:12;;;;;;;9.57;4.75;;;;;;;-0.95;99.38;97891.81;4480276;32;20199;-75
2022/12/12 10:22:47;;;;;;;10.23;4.85;;;;;;;-0.98;98.94;97889.41;4480415;32;20107;-75
2022/12/12 10:25:46;;;;;;;11.45;5.05;;;;;;;-1.00;97.23;97896.41;4478831;32;20275;-75
2022/12/12 10:28:16;;;;;;;9.65;4.60;;;;;;;-1.08;99.27;97901.94;4482249;31;20101;-75
2022/12/12 10:30:55;;;;;;;9.93;4.03;;;;;;;-0.68;95.76;97893.72;4481211;31;20210;-75
2022/12/12 10:33:55;;;;;;;8.85;3.60;;;;;;;-0.79;92.46;97914.06;4481158;31;20143;-75
2022/12/12 10:36:30;;;;;;;8.18;3.97;;;;;;;-0.82;93.37;97901.41;4431414;32;20180;-76
2022/12/12 10:39:39;;;;;;;7.22;3.37;;;;;;;-1.00;91.21;97895.53;4414539;32;20102;-75
2022/12/12 10:42:18;;;;;;;10.48;4.25;;;;;;;-1.26;92.35;97906.38;4372047;32;20102;-73
2022/12/12 10:44:45;;;;;;;12.90;4.35;;;;;;;-1.25;94.57;97908.00;4368980;32;20090;-74
2022/12/12 10:47:16;;;;;;;8.43;3.80;;;;;;;-1.17;94.87;97914.47;4369663;32;20122;-76
2022/12/12 10:49:43;;;;;;;7.12;3.40;;;;;;;-1.17;91.78;97905.03;4371935;32;20236;-77
2022/12/12 10:52:21;;;;;;;6.20;3.85;;;;;;;-1.35;90.45;97912.00;4370523;32;20118;-75
2022/12/12 10:54:56;;;;;;;7.87;3.67;;;;;;;-1.22;92.46;97906.22;4372214;32;20230;-74
2022/12/12 10:57:27;;;;;;;6.75;2.87;;;;;;;-1.14;89.50;97901.47;4370908;32;20099;-81
2022/12/12 10:59:57;;;;;;;7.40;3.47;;;;;;;-1.11;88.99;97914.13;4359757;32;20130;-78
2022/12/12 11:02:36;;;;;;;5.97;2.53;;;;;;;-1.44;89.06;97908.22;4366076;32;20157;-76
2022/12/12 11:05:04;;;;;;;4.07;2.45;;;;;;;-1.35;91.00;97916.31;4371450;32;20125;-81
2022/12/12 11:07:36;;;;;;;7.30;3.90;;;;;;;-1.50;92.05;97911.13;4372689;32;20114;-76
2022/12/12 11:10:13;;;;;;;8.63;3.10;;;;;;;-1.51;93.58;97918.91;4367939;32;20103;-78
2022/12/12 11:12:40;;;;;;;9.75;3.92;;;;;;;-1.43;94.22;97921.88;4386659;32;20168;-77
2022/12/12 11:15:15;;;;;;;7.20;3.20;;;;;;;-1.65;94.35;97910.19;4415958;32;20522;-78
2022/12/12 11:17:43;;;;;;;9.60;2.87;;;;;;;-1.66;96.09;97929.06;4403568;32;20125;-78
2022/12/12 11:20:16;;;;;;;7.97;2.90;;;;;;;-1.65;96.72;97914.47;4472871;32;20579;-76
2022/12/12 11:22:44;;;;;;;6.93;2.87;;;;;;;-1.61;97.21;97919.38;4483686;31;20631;-75
2022/12/12 11:25:43;;;;;;;7.07;3.08;;;;;;;-1.55;98.02;97930.25;4484057;31;20438;-74
2022/12/12 11:28:19;;;;;;;9.68;3.70;;;;;;;-1.41;98.63;97922.59;4405471;32;20503;-76
2022/12/12 11:30:49;;;;;;;8.77;3.40;;;;;;;-1.21;98.37;97926.69;4405433;32;20227;-75
2022/12/12 11:33:23;;;;;;;8.98;3.67;;;;;;;-1.13;97.79;97936.53;4413625;32;20113;-77
2022/12/12 11:35:54;;;;;;;8.38;3.80;;;;;;;-1.02;97.75;97930.81;4398062;32;20119;-77
2022/12/12 11:38:49;;;;;;;10.55;3.05;;;;;;;-0.79;100.00;97921.78;4401916;32;20160;-75
2022/12/12 11:41:16;;;;;;;7.32;3.22;;;;;;;-0.70;98.31;97917.88;4367243;32;20107;-73
2022/12/12 11:43:46;;;;;;;7.87;3.80;;;;;;;-0.61;99.01;97925.88;4356727;32;20650;-71
2022/12/12 11:46:13;;;;;;;7.07;3.70;;;;;;;-0.66;95.89;97925.31;4356652;32;20130;-72
2022/12/12 11:48:46;;;;;;;7.07;3.33;;;;;;;-0.75;93.94;97918.13;4357706;32;20141;-75
2022/12/12 11:51:38;;;;;;;5.43;3.17;;;;;;;-0.65;97.24;97933.84;4358348;32;20119;-72
2022/12/12 11:54:18;;;;;;;13.77;4.80;;;;;;;-0.47;98.48;97919.97;4358951;32;20448;-74